createdAt,value
2022-08-28T00:00:30.196Z,15.93
2022-08-28T00:03:32.507Z,15.88
2022-08-28T00:06:34.551Z,15.85
2022-08-28T00:09:36.727Z,15.80
2022-08-28T00:12:39.830Z,15.83
2022-08-28T00:15:41.972Z,15.81
2022-08-28T00:18:43.835Z,15.80
2022-08-28T00:21:49.345Z,15.81
2022-08-28T00:24:51.181Z,15.77
2022-08-28T00:28:00.376Z,15.80
2022-08-28T00:31:02.331Z,15.75
2022-08-28T00:34:04.511Z,15.75
2022-08-28T00:37:06.426Z,15.70
2022-08-28T00:40:09.159Z,15.64
2022-08-28T00:43:25.877Z,15.67
2022-08-28T00:46:27.684Z,15.65
2022-08-28T00:49:34.021Z,15.67
2022-08-28T00:52:36.817Z,15.65
2022-08-28T00:55:38.630Z,15.58
2022-08-28T00:58:43.588Z,15.55
2022-08-28T01:01:47.567Z,15.55
2022-08-28T01:04:50.858Z,15.55
2022-08-28T01:07:53.132Z,15.50
2022-08-28T01:10:56.326Z,15.44
2022-08-28T01:14:01.901Z,15.42
2022-08-28T01:17:06.492Z,15.37
2022-08-28T01:20:13.579Z,15.36
2022-08-28T01:23:31.607Z,15.34
2022-08-28T01:26:33.327Z,15.29
2022-08-28T01:29:36.435Z,15.29
2022-08-28T01:32:41.575Z,15.28
2022-08-28T01:35:46.461Z,15.26
2022-08-28T01:38:56.158Z,15.30
2022-08-28T01:41:59.667Z,15.29
2022-08-28T01:45:01.425Z,15.32
2022-08-28T01:48:06.053Z,15.34
2022-08-28T01:51:08.928Z,15.31
2022-08-28T01:54:11.963Z,15.32
2022-08-28T01:57:13.814Z,15.33
2022-08-28T02:00:17.366Z,15.28
2022-08-28T02:03:19.960Z,15.30
2022-08-28T02:06:22.472Z,15.30
2022-08-28T02:09:24.775Z,15.30
2022-08-28T02:12:27.064Z,15.25
2022-08-28T02:15:31.297Z,15.25
2022-08-28T02:18:33.376Z,15.23
2022-08-28T02:21:35.640Z,15.25
2022-08-28T02:24:37.409Z,15.29
2022-08-28T02:27:40.031Z,15.30
2022-08-28T02:30:42.590Z,15.29
2022-08-28T02:33:45.372Z,15.27
2022-08-28T02:36:48.023Z,15.24
2022-08-28T02:39:51.077Z,15.23
2022-08-28T02:42:53.075Z,15.25
2022-08-28T02:45:55.469Z,15.23
2022-08-28T02:48:57.364Z,15.26
2022-08-28T02:51:59.389Z,15.21
2022-08-28T02:55:01.190Z,15.17
2022-08-28T02:58:03.472Z,15.14
2022-08-28T03:01:08.094Z,15.10
2022-08-28T03:04:09.962Z,15.14
2022-08-28T03:07:13.555Z,15.12
2022-08-28T03:10:15.958Z,15.04
2022-08-28T03:13:26.807Z,14.93
2022-08-28T03:16:29.737Z,14.99
2022-08-28T03:19:31.537Z,15.01
2022-08-28T03:22:52.395Z,15.04
2022-08-28T03:26:09.162Z,14.95
2022-08-28T03:29:11.383Z,14.93
2022-08-28T03:32:13.168Z,14.85
2022-08-28T03:35:15.532Z,14.90
2022-08-28T03:38:17.991Z,14.94
2022-08-28T03:41:23.205Z,14.88
2022-08-28T03:44:25.000Z,14.96
2022-08-28T03:47:28.357Z,14.99
2022-08-28T03:50:31.638Z,14.97
2022-08-28T03:53:33.938Z,14.92
2022-08-28T03:56:42.255Z,14.90
2022-08-28T03:59:44.092Z,14.89
2022-08-28T04:02:46.301Z,14.88
2022-08-28T04:05:48.196Z,14.87
2022-08-28T04:08:51.112Z,14.89
2022-08-28T04:11:54.360Z,14.90
2022-08-28T04:14:56.198Z,14.94
2022-08-28T04:17:58.054Z,14.98
2022-08-28T04:21:08.009Z,15.01
2022-08-28T04:24:10.012Z,15.10
2022-08-28T04:27:11.862Z,15.11
2022-08-28T04:30:13.740Z,15.24
2022-08-28T04:33:15.520Z,15.31
2022-08-28T04:36:18.259Z,15.20
2022-08-28T04:39:20.183Z,15.38
2022-08-28T04:42:22.132Z,15.42
2022-08-28T04:45:24.009Z,15.56
2022-08-28T04:48:25.908Z,15.60
2022-08-28T04:51:28.803Z,15.67
2022-08-28T04:54:34.120Z,15.79
2022-08-28T04:57:36.599Z,15.86
2022-08-28T05:00:40.295Z,15.89
2022-08-28T05:03:42.518Z,15.90
2022-08-28T05:06:46.510Z,15.83
2022-08-28T05:09:48.512Z,15.92
2022-08-28T05:12:50.624Z,15.99
2022-08-28T05:15:53.065Z,16.14
2022-08-28T05:18:59.994Z,16.24
2022-08-28T05:22:01.792Z,16.30
2022-08-28T05:25:03.872Z,16.16
2022-08-28T05:28:11.420Z,16.26
2022-08-28T05:31:17.314Z,16.20
2022-08-28T05:34:19.210Z,16.30
2022-08-28T05:37:21.349Z,16.44
2022-08-28T05:40:23.199Z,16.28
2022-08-28T05:43:25.735Z,16.35
2022-08-28T05:46:31.084Z,16.53
2022-08-28T05:49:32.982Z,16.74
2022-08-28T05:52:35.686Z,16.80
2022-08-28T05:55:40.979Z,16.86
2022-08-28T05:58:42.799Z,16.77
2022-08-28T06:01:49.829Z,16.86
2022-08-28T06:04:53.665Z,16.93
2022-08-28T06:07:55.472Z,16.98
2022-08-28T06:10:58.474Z,17.07
2022-08-28T06:14:02.442Z,17.07
2022-08-28T06:17:05.170Z,17.14
2022-08-28T06:20:07.541Z,17.19
2022-08-28T06:23:11.039Z,17.31
2022-08-28T06:26:13.052Z,17.59
2022-08-28T06:29:17.268Z,17.88
2022-08-28T06:32:19.198Z,17.96
2022-08-28T06:35:21.005Z,18.21
2022-08-28T06:38:25.220Z,18.44
2022-08-28T06:41:27.859Z,18.94
2022-08-28T06:44:32.555Z,18.97
2022-08-28T06:47:34.334Z,19.50
2022-08-28T06:50:45.408Z,19.25
2022-08-28T06:53:47.246Z,19.65
2022-08-28T06:56:49.753Z,19.89
2022-08-28T06:59:55.694Z,19.96
2022-08-28T07:02:58.472Z,19.82
2022-08-28T07:06:02.100Z,20.32
2022-08-28T07:09:06.729Z,20.15
2022-08-28T07:12:09.135Z,20.37
2022-08-28T07:15:11.692Z,20.38
2022-08-28T07:18:13.930Z,20.60
2022-08-28T07:21:15.981Z,20.71
2022-08-28T07:24:18.307Z,20.79
2022-08-28T07:27:21.603Z,21.16
2022-08-28T07:30:23.791Z,21.49
2022-08-28T07:33:27.714Z,22.00
2022-08-28T07:36:30.169Z,22.08
2022-08-28T07:39:34.663Z,21.66
2022-08-28T07:42:55.357Z,21.92
2022-08-28T07:45:59.654Z,22.41
2022-08-28T07:49:01.679Z,22.69
2022-08-28T07:52:05.218Z,22.95
2022-08-28T07:55:08.791Z,22.90
2022-08-28T07:58:11.251Z,22.80
2022-08-28T08:01:13.174Z,23.29
2022-08-28T08:04:17.293Z,23.52
2022-08-28T08:07:20.454Z,23.46
2022-08-28T08:10:23.511Z,22.91
2022-08-28T08:13:25.587Z,23.14
2022-08-28T08:16:27.579Z,23.11
2022-08-28T08:19:29.456Z,23.40
2022-08-28T08:22:31.355Z,23.69
2022-08-28T08:25:33.601Z,23.64
2022-08-28T08:28:37.447Z,23.84
2022-08-28T08:31:40.964Z,23.63
2022-08-28T08:34:46.569Z,24.46
2022-08-28T08:37:48.551Z,24.56
2022-08-28T08:40:51.345Z,24.72
2022-08-28T08:44:02.827Z,24.72
2022-08-28T08:47:23.693Z,24.25
2022-08-28T08:50:29.524Z,23.71
2022-08-28T08:53:50.689Z,23.32
2022-08-28T08:56:56.293Z,23.65
2022-08-28T08:59:58.495Z,23.74
2022-08-28T09:03:07.509Z,23.12
2022-08-28T09:06:19.553Z,23.49
2022-08-28T09:09:30.000Z,23.86
2022-08-28T09:12:41.763Z,24.49
2022-08-28T09:15:50.370Z,24.69
2022-08-28T09:18:55.433Z,24.48
2022-08-28T09:21:57.274Z,24.73
2022-08-28T09:24:59.357Z,24.54
2022-08-28T09:28:09.574Z,24.27
2022-08-28T09:31:20.170Z,24.68
2022-08-28T09:34:38.579Z,24.92
2022-08-28T09:37:42.416Z,25.72
2022-08-28T09:41:03.369Z,25.42
2022-08-28T09:44:05.266Z,24.97
2022-08-28T09:47:07.089Z,24.95
2022-08-28T09:50:25.872Z,25.06
2022-08-28T09:53:29.215Z,24.67
2022-08-28T09:56:35.413Z,24.73
2022-08-28T09:59:37.373Z,25.64
2022-08-28T10:02:58.256Z,25.66
2022-08-28T10:06:13.741Z,25.84
2022-08-28T10:09:32.657Z,25.33
2022-08-28T10:12:53.170Z,25.57
2022-08-28T10:16:23.518Z,25.90
2022-08-28T10:19:54.530Z,25.81
2022-08-28T10:23:17.623Z,25.12
2022-08-28T10:26:19.622Z,25.48
2022-08-28T10:29:34.246Z,25.25
2022-08-28T10:32:47.154Z,24.34
2022-08-28T10:35:55.443Z,23.75
2022-08-28T10:39:19.580Z,24.67
2022-08-28T10:42:36.315Z,24.57
2022-08-28T10:45:39.507Z,24.62
2022-08-28T10:48:50.375Z,24.89
2022-08-28T10:52:01.389Z,25.03
2022-08-28T10:55:05.990Z,25.37
2022-08-28T10:58:24.506Z,25.38
2022-08-28T11:01:34.482Z,25.30
2022-08-28T11:04:36.618Z,25.29
2022-08-28T11:07:49.388Z,25.11
2022-08-28T11:10:56.238Z,24.04
2022-08-28T11:14:01.672Z,24.07
2022-08-28T11:17:10.716Z,24.49
2022-08-28T11:20:24.715Z,24.67
2022-08-28T11:23:45.931Z,24.55
2022-08-28T11:27:03.947Z,24.84
2022-08-28T11:30:31.552Z,24.96
2022-08-28T11:33:37.614Z,24.53
2022-08-28T11:36:39.907Z,23.91
2022-08-28T11:39:41.814Z,23.59
2022-08-28T11:42:48.608Z,23.56
2022-08-28T11:45:56.250Z,24.20
2022-08-28T11:49:03.950Z,23.59
2022-08-28T11:52:36.216Z,23.16
2022-08-28T11:55:44.067Z,22.81
2022-08-28T11:59:24.856Z,22.68
2022-08-28T12:02:40.065Z,22.99
2022-08-28T12:05:54.660Z,23.31
2022-08-28T12:08:56.403Z,23.27
2022-08-28T12:12:02.059Z,23.16
2022-08-28T12:15:07.811Z,23.27
2022-08-28T12:18:10.036Z,22.95
2022-08-28T12:21:20.925Z,22.92
2022-08-28T12:24:24.648Z,22.68
2022-08-28T12:27:28.179Z,22.73
2022-08-28T12:30:36.007Z,22.64
2022-08-28T12:33:57.336Z,22.80
2022-08-28T12:37:02.320Z,22.67
2022-08-28T12:40:19.229Z,22.27
2022-08-28T12:43:29.881Z,22.46
2022-08-28T12:46:40.877Z,22.35
2022-08-28T12:49:42.698Z,22.30
2022-08-28T12:52:50.198Z,22.26
2022-08-28T12:55:52.054Z,21.94
2022-08-28T12:58:54.027Z,22.24
2022-08-28T13:02:03.075Z,21.86
2022-08-28T13:05:11.719Z,22.05
2022-08-28T13:08:13.627Z,22.20
2022-08-28T13:11:19.971Z,22.51
2022-08-28T13:14:46.393Z,22.44
2022-08-28T13:17:52.699Z,22.42
2022-08-28T13:21:30.837Z,22.42
2022-08-28T13:24:35.840Z,22.46
2022-08-28T13:27:39.865Z,22.59
2022-08-28T13:30:41.875Z,22.78
2022-08-28T13:34:22.068Z,22.61
2022-08-28T13:37:48.162Z,22.40
2022-08-28T13:40:57.979Z,22.71
2022-08-28T13:44:00.838Z,22.77
2022-08-28T13:47:06.808Z,22.57
2022-08-28T13:50:08.734Z,22.54
2022-08-28T13:53:10.660Z,22.47
2022-08-28T13:56:12.632Z,22.10
2022-08-28T13:59:14.467Z,21.70
2022-08-28T14:02:35.650Z,21.58
2022-08-28T14:05:37.487Z,21.63
2022-08-28T14:08:41.582Z,21.64
2022-08-28T14:11:43.658Z,21.69
2022-08-28T14:14:45.628Z,21.43
2022-08-28T14:17:47.448Z,21.04
2022-08-28T14:20:49.373Z,20.69
2022-08-28T14:23:51.535Z,20.42
2022-08-28T14:26:53.462Z,20.08
2022-08-28T14:29:55.812Z,19.99
2022-08-28T14:32:58.098Z,19.86
2022-08-28T14:35:59.883Z,19.70
2022-08-28T14:39:06.161Z,19.71
2022-08-28T14:42:13.141Z,19.77
2022-08-28T14:45:15.903Z,19.94
2022-08-28T14:48:18.960Z,20.05
2022-08-28T14:51:21.274Z,20.20
2022-08-28T14:54:25.356Z,20.04
2022-08-28T14:57:27.699Z,20.12
2022-08-28T15:00:30.270Z,20.30
2022-08-28T15:03:32.643Z,20.50
2022-08-28T15:06:34.878Z,20.40
2022-08-28T15:09:39.576Z,20.13
2022-08-28T15:12:42.594Z,20.18
2022-08-28T15:15:44.873Z,20.20
2022-08-28T15:18:47.683Z,20.26
2022-08-28T15:21:52.634Z,20.41
2022-08-28T15:24:55.692Z,20.40
2022-08-28T15:27:57.909Z,20.39
2022-08-28T15:30:59.799Z,20.38
2022-08-28T15:34:17.197Z,20.20
2022-08-28T15:37:19.517Z,20.17
2022-08-28T15:40:40.714Z,20.09
2022-08-28T15:43:43.060Z,20.06
2022-08-28T15:46:55.981Z,19.85
2022-08-28T15:49:57.898Z,19.92
2022-08-28T15:53:01.677Z,19.94
2022-08-28T15:56:04.099Z,20.07
2022-08-28T15:59:06.107Z,20.25
2022-08-28T16:02:08.357Z,20.10
2022-08-28T16:05:10.643Z,20.15
2022-08-28T16:08:12.591Z,20.29
2022-08-28T16:11:19.251Z,20.21
2022-08-28T16:14:21.250Z,20.08
2022-08-28T16:17:23.378Z,19.89
2022-08-28T16:20:25.676Z,19.89
2022-08-28T16:23:28.014Z,19.65
2022-08-28T16:26:30.153Z,19.69
2022-08-28T16:29:32.170Z,19.54
2022-08-28T16:32:35.027Z,19.42
2022-08-28T16:35:44.556Z,19.34
2022-08-28T16:38:52.975Z,19.25
2022-08-28T16:42:05.946Z,19.08
2022-08-28T16:45:08.991Z,18.97
2022-08-28T16:48:14.957Z,18.94
2022-08-28T16:51:17.410Z,18.86
2022-08-28T16:54:20.813Z,18.79
2022-08-28T16:57:23.778Z,18.79
2022-08-28T17:00:25.769Z,18.64
2022-08-28T17:03:27.647Z,18.64
2022-08-28T17:06:33.348Z,18.58
2022-08-28T17:09:35.148Z,18.57
2022-08-28T17:12:36.930Z,18.46
2022-08-28T17:15:38.842Z,18.45
2022-08-28T17:18:51.929Z,18.35
2022-08-28T17:22:13.472Z,18.17
2022-08-28T17:25:15.287Z,18.22
2022-08-28T17:28:17.316Z,18.04
2022-08-28T17:31:19.980Z,17.83
2022-08-28T17:34:24.768Z,17.64
2022-08-28T17:37:29.983Z,17.61
2022-08-28T17:40:31.868Z,17.59
2022-08-28T17:43:34.204Z,17.53
2022-08-28T17:46:37.929Z,17.40
2022-08-28T17:49:40.439Z,17.43
2022-08-28T17:52:42.282Z,17.42
2022-08-28T17:55:44.627Z,17.31
2022-08-28T17:58:46.902Z,17.27
2022-08-28T18:01:50.016Z,17.12
2022-08-28T18:04:52.463Z,17.04
2022-08-28T18:07:54.370Z,16.88
2022-08-28T18:10:56.319Z,16.80
2022-08-28T18:13:59.827Z,16.87
2022-08-28T18:17:01.788Z,16.84
2022-08-28T18:20:10.322Z,16.73
2022-08-28T18:23:12.186Z,16.74
2022-08-28T18:26:14.019Z,16.78
2022-08-28T18:29:16.144Z,16.62
2022-08-28T18:32:19.079Z,16.62
2022-08-28T18:35:31.544Z,16.65
2022-08-28T18:38:35.631Z,16.58
2022-08-28T18:41:43.837Z,16.60
2022-08-28T18:44:46.580Z,16.61
2022-08-28T18:47:48.446Z,16.62
2022-08-28T18:50:50.250Z,16.58
2022-08-28T18:53:52.074Z,16.67
2022-08-28T18:56:59.611Z,16.64
2022-08-28T19:00:06.689Z,16.72
2022-08-28T19:03:09.249Z,16.75
2022-08-28T19:06:15.044Z,16.71
2022-08-28T19:09:19.406Z,16.70
2022-08-28T19:12:22.185Z,16.73
2022-08-28T19:15:23.914Z,16.79
2022-08-28T19:18:25.826Z,16.78
2022-08-28T19:21:27.707Z,16.69
2022-08-28T19:24:33.791Z,16.64
2022-08-28T19:27:36.182Z,16.57
2022-08-28T19:30:38.082Z,16.61
2022-08-28T19:33:39.975Z,16.59
2022-08-28T19:36:41.992Z,16.52
2022-08-28T19:39:44.540Z,16.44
2022-08-28T19:42:57.878Z,16.37
2022-08-28T19:46:06.563Z,16.45
2022-08-28T19:49:08.685Z,16.43
2022-08-28T19:52:10.976Z,16.45
2022-08-28T19:55:19.647Z,16.47
2022-08-28T19:58:21.426Z,16.43
2022-08-28T20:01:24.015Z,16.42
2022-08-28T20:04:26.282Z,16.40
2022-08-28T20:07:28.090Z,16.43
2022-08-28T20:10:31.628Z,16.38
2022-08-28T20:13:34.905Z,16.37
2022-08-28T20:16:40.974Z,16.43
2022-08-28T20:19:42.565Z,16.42
2022-08-28T20:22:44.452Z,16.41
2022-08-28T20:25:51.257Z,16.38
2022-08-28T20:28:54.034Z,16.37
2022-08-28T20:31:55.812Z,16.33
2022-08-28T20:34:58.360Z,16.26
2022-08-28T20:38:00.166Z,16.33
2022-08-28T20:41:07.217Z,16.32
2022-08-28T20:44:10.866Z,16.33
2022-08-28T20:47:12.658Z,16.27
2022-08-28T20:50:15.511Z,16.34
2022-08-28T20:53:23.334Z,16.30
2022-08-28T20:56:39.494Z,16.32
2022-08-28T20:59:42.679Z,16.32
2022-08-28T21:02:44.422Z,16.24
2022-08-28T21:05:49.015Z,16.32
2022-08-28T21:08:50.936Z,16.28
2022-08-28T21:11:52.826Z,16.19
2022-08-28T21:14:54.642Z,16.23
2022-08-28T21:17:56.565Z,16.26
2022-08-28T21:20:58.322Z,16.22
2022-08-28T21:24:05.308Z,16.22
2022-08-28T21:27:09.587Z,16.23
2022-08-28T21:30:14.324Z,16.28
2022-08-28T21:33:16.140Z,16.23
2022-08-28T21:36:19.097Z,16.26
2022-08-28T21:39:21.173Z,16.28
2022-08-28T21:42:23.003Z,16.24
2022-08-28T21:45:24.943Z,16.20
2022-08-28T21:48:26.991Z,16.24
2022-08-28T21:51:28.811Z,16.22
2022-08-28T21:54:31.597Z,16.19
2022-08-28T21:57:33.990Z,16.22
2022-08-28T22:00:35.808Z,16.21
2022-08-28T22:03:37.615Z,16.19
2022-08-28T22:06:40.529Z,16.14
2022-08-28T22:09:42.449Z,16.24
2022-08-28T22:12:44.226Z,16.14
2022-08-28T22:15:47.662Z,16.09
2022-08-28T22:18:49.816Z,16.17
2022-08-28T22:22:10.479Z,16.14
2022-08-28T22:25:12.284Z,16.12
2022-08-28T22:28:14.306Z,16.08
2022-08-28T22:31:16.379Z,16.08
2022-08-28T22:34:20.127Z,16.08
2022-08-28T22:37:23.247Z,16.07
2022-08-28T22:40:25.079Z,16.09
2022-08-28T22:43:26.869Z,16.03
2022-08-28T22:46:28.681Z,16.01
2022-08-28T22:49:30.529Z,16.05
2022-08-28T22:52:32.435Z,16.04
2022-08-28T22:55:36.174Z,16.04
2022-08-28T22:58:40.235Z,16.03
2022-08-28T23:01:42.899Z,16.00
2022-08-28T23:04:45.231Z,15.93
2022-08-28T23:07:54.676Z,15.98
2022-08-28T23:10:59.362Z,15.97
2022-08-28T23:14:01.550Z,15.95
2022-08-28T23:17:03.625Z,15.93
2022-08-28T23:20:08.085Z,15.93
2022-08-28T23:23:12.405Z,15.89
2022-08-28T23:26:15.923Z,15.92
2022-08-28T23:29:17.867Z,15.86
2022-08-28T23:32:19.770Z,15.94
2022-08-28T23:35:22.393Z,15.94
2022-08-28T23:38:24.595Z,15.92
2022-08-28T23:41:27.954Z,15.91
2022-08-28T23:44:30.041Z,15.95
2022-08-28T23:47:33.162Z,15.88
2022-08-28T23:50:35.987Z,15.90
2022-08-28T23:53:38.998Z,15.85
2022-08-28T23:56:41.797Z,15.88
2022-08-28T23:59:44.107Z,15.80
